Kampville Beach, Missouri
Current Conditions -  °F | °C
As of 8:21 PM on Monday 22 Dec 2014 (Local Time) from KSET Reporting Station
Light Rain Light Rain  
Wind Chill: 45°   Ceiling: 1700
Heat Index: 49°   Visibility: 7mi
Dew Point: 48°   Wind: 10mph
Humidity: 97%   Direction: 170°S
Pressure: 29.52"   Gusts: NA
Location:  38.8615°N, 90.4548°W
Report Text: KSET 230221Z AUTO 17009KT 7SM -RA SCT012 BKN017 OVC024 09/09 A2952 RMK AO2 RAE0156B14 P0000 T00940089
Loading
Personal Weather Stations






























Interactive Weather Map New forecast layout! Learn more

10-Day Weather Forecast

Advertisements
Track Severe Weather on mobile